METAR v bližini

 

LJLJ - Ljubljana/Brnik, Slovenia
Oddaljenost od postaje: W 41km
Podatki zajeti: 25/05/2019 13:00
Nevihte v okolici, Delno oblačno
Nevihte v okolici, Delno oblačno
 Veter iz smeri spremenljiv
Veter: spremenljiv 4 km/h
Temperatura: 23°C
Rosišče: 11°C
Vlažnost: 47%
Tlak: 1015 hPa
Stanje: Nevihte v okolici
Oblačnost: Delno oblačno
Vidljivost: 10 km
Podrobnosti o oblakih: Rahlo oblačno 1006 m
Rahlo oblačno 1524 m
Delno oblačno 7620 m
2019/05/25 11:00 LJLJ 251100Z VRB02KT 9999 VCTS FEW033 FEW050CB SCT250 23/11 Q1015 NOSIG
LJMB - Maribor, Slovenia
Oddaljenost od postaje: NE 63km
Podatki zajeti: 25/05/2019 13:00
Pretežno oblačno
Pretežno oblačno
 Veter iz smeri E
Veter: E 2 km/h
Temperatura: 24°C
Rosišče: 9°C
Vlažnost: 39%
Tlak: 1014 hPa
Oblačnost: Pretežno oblačno
Vidljivost: 10 km
Podrobnosti o oblakih: Rahlo oblačno 1524 m
Pretežno oblačno 7010 m
2019/05/25 11:00 LJMB 251100Z 10001KT 9999 FEW050 BKN230 24/09 Q1014
 
LJPZ - Portoroz, Slovenia
Oddaljenost od postaje: SW 130km
Podatki zajeti: 25/05/2019 13:00
Delno oblačno
Delno oblačno
 Veter iz smeri WNW
Veter: WNW 13 km/h
Temperatura: 22°C
Rosišče: 16°C
Vlažnost: 69%
Tlak: 1014 hPa
Oblačnost: Delno oblačno
Vidljivost: 10 km
Podrobnosti o oblakih: Rahlo oblačno 1524 m
Delno oblačno 6401 m
2019/05/25 11:00 LJPZ 251100Z 30007KT 9999 FEW050 SCT210 22/16 Q1014
LJCE - Cerklje, Slovenia
Oddaljenost od postaje: ESE 49km
Podatki zajeti: 25/05/2019 13:00
Pretežno oblačno
Pretežno oblačno
 Veter iz smeri E
Veter: E 7 km/h
Temperatura: 24°C
Rosišče: 11°C
Vlažnost: 44%
Tlak: 1014 hPa
Oblačnost: Pretežno oblačno
Vidljivost: 10 km
Podrobnosti o oblakih: Rahlo oblačno 1433 m
Pretežno oblačno 7010 m
2019/05/25 11:00 LJCE 251100Z 08004KT 9999 FEW047 BKN230 24/11 Q1014 RMK BLU
 
LDZA - Zagreb/Pleso, Croatia
Oddaljenost od postaje: ESE 96km
Podatki zajeti: 25/05/2019 13:00
Jasno
Jasno
 Veter iz smeri spremenljiv
Veter: spremenljiv 4 km/h
Temperatura: 24°C
Rosišče: 9°C
Vlažnost: 39%
Tlak: 1014 hPa
Stanje: Jasno
Vidljivost: večja od 10 km
2019/05/25 11:00 LDZA 251100Z VRB02KT CAVOK 24/09 Q1014 NOSIG
LDRI - Rijeka/Omisalj, Croatia
Oddaljenost od postaje: SSW 109km
Podatki zajeti: 25/05/2019 13:00
Rahlo oblačno
Rahlo oblačno
 Veter iz smeri spremenljiv
Veter: spremenljiv 6 km/h
Temperatura: 22°C
Rosišče: 13°C
Vlažnost: 57%
Tlak: 1015 hPa
Oblačnost: Rahlo oblačno
Vidljivost: 10 km
Podrobnosti o oblakih: Rahlo oblačno 1311 m
2019/05/25 11:00 LDRI 251100Z VRB03KT 9999 FEW043 22/13 Q1015
 
LDPL - Pula, Croatia
Oddaljenost od postaje: SSW 164km
Podatki zajeti: 25/05/2019 13:00
Rahlo oblačno
Rahlo oblačno
 Veter iz smeri SSE
Veter: SSE 9 km/h
Temperatura: 24°C
Rosišče: 13°C
Vlažnost: 50%
Tlak: 1015 hPa
Oblačnost: Rahlo oblačno
Vidljivost: 10 km
Podrobnosti o oblakih: Rahlo oblačno 1036 m
2019/05/25 11:00 LDPL 251100Z 15005KT 080V220 9999 FEW034 24/13 Q1015 NOSIG
LOWK - Klagenfurt(Civ/M, Austria
Oddaljenost od postaje: NW 76km
Podatki zajeti: 25/05/2019 13:20
Pretežno oblačno
Pretežno oblačno
 Veter iz smeri WNW
Veter: WNW 9 km/h
Temperatura: 20°C
Rosišče: 10°C
Vlažnost: 53%
Tlak: 1015 hPa
Oblačnost: Pretežno oblačno
Vidljivost: 10 km
Podrobnosti o oblakih: Rahlo oblačno 1524 m
Rahlo oblačno 1524 m
Pretežno oblačno 2134 m
2019/05/25 11:20 LOWK 251120Z 29005KT 250V330 9999 FEW050 FEW050CB BKN070 20/10 Q1015 TEMPO SHRA
 
LOWG - Graz (mil/Civ), Austria
Oddaljenost od postaje: NNE 100km
Podatki zajeti: 25/05/2019 13:20
Jasno
Jasno
 Veter iz smeri spremenljiv
Veter: spremenljiv 9 km/h
Temperatura: 24°C
Rosišče: 7°C
Vlažnost: 34%
Tlak: 1014 hPa
Stanje: Jasno
Vidljivost: večja od 10 km
2019/05/25 11:20 LOWG 251120Z VRB05KT CAVOK 24/07 Q1014 NOSIG
LOAN - Wr.neustadt East, Austria
Oddaljenost od postaje: NNE 212km
Podatki zajeti: 25/05/2019 13:00
Pretežno oblačno
Pretežno oblačno
 Veter iz smeri ESE
Veter: ESE 17 km/h
Oblačnost: Pretežno oblačno
Podrobnosti o oblakih: Delno oblačno 1829 m
Pretežno oblačno 9144 m
2019/05/25 11:00 LOAN 251100Z 12009KT 35KM SCT060CU BKN300CI
 
LIPQ - Ronchi Legionari, Italy
Oddaljenost od postaje: SW 35km
Podatki zajeti: 25/05/2019 13:20
Rahlo oblačno
Rahlo oblačno
 Veter iz smeri W
Veter: W 7 km/h
Temperatura: 25°C
Rosišče: 15°C
Vlažnost: 54%
Tlak: 1014 hPa
Oblačnost: Rahlo oblačno
Vidljivost: 10 km
Podrobnosti o oblakih: Rahlo oblačno 1524 m
2019/05/25 11:20 LIPQ 251120Z 27004KT 180V340 9999 FEW050 25/15 Q1014
LIVT - Trieste, Italy
Oddaljenost od postaje: WSW 109km
Podatki zajeti: 25/05/2019 12:55
Jasno
Jasno
 Veter iz smeri W
Veter: W 4 km/h
Temperatura: 21°C
Rosišče: 14°C
Vlažnost: 64%
Tlak: 1014 hPa
Stanje: Jasno
Vidljivost: večja od 10 km
2019/05/25 10:55 LIVT 251055Z 28002KT CAVOK 21/14 Q1014 RMK FEW FEW200 QUK 1 QUL 0 VIS MAR 20 KM VIS MIN 9999
 
LIVO - Tarvisio, Italy
Oddaljenost od postaje: NNW 49km
Podatki zajeti: 25/05/2019 12:55
Pretežno oblačno
Pretežno oblačno
 Veter iz smeri E
Veter: E 7 km/h
Temperatura: 17°C
Rosišče: 11°C
Vlažnost: 68%
Tlak: 1015 hPa
Oblačnost: Pretežno oblačno
Vidljivost: 10 km
Podrobnosti o oblakih: Pretežno oblačno 914 m
2019/05/25 10:55 LIVO 251055Z 10004KT 9999 BKN030TCU 17/11 Q1015 RMK BKN VIS MIN 9999
LIPZ - Venezia/Tessera, Italy
Oddaljenost od postaje: WSW 217km
Podatki zajeti: 25/05/2019 13:20
Rahlo oblačno
Rahlo oblačno
 Veter iz smeri SSE
Veter: SSE 13 km/h
Temperatura: 22°C
Rosišče: 15°C
Vlažnost: 65%
Tlak: 1014 hPa
Oblačnost: Rahlo oblačno
Vidljivost: 10 km
Podrobnosti o oblakih: Rahlo oblačno 610 m
2019/05/25 11:20 LIPZ 251120Z 15007KT 9999 FEW020TCU 22/15 Q1014 NOSIG
 
LHSM - Balaton, Hungary
Oddaljenost od postaje: ENE 177km
Podatki zajeti: 25/05/2019 12:45
Jasno
Jasno
 Veter iz smeri NW
Veter: NW 9 km/h
Temperatura: 23°C
Rosišče: 11°C
Vlažnost: 47%
Tlak: 1014 hPa
Stanje: Jasno
Vidljivost: večja od 10 km
2019/05/25 10:45 LHSM 251045Z AUTO 31005KT 240V030 CAVOK 23/11 Q1014 NOSIG